Time;durP1;ratioP1;P1;durP2;ratioP2;P2;SDS_P1;SDS_P2;PMS_P1;PMS_P2;Temp;Humidity;BMP_temperature;BMP_pressure;BME280_temperature;BME280_humidity;BME280_pressure;Samples;Min_cycle;Max_cycle;Signal;HPM_P1;HPM_P2
2022/08/11 00:00:34;;;;;;;;;;;;;;;24.35;48.15;101014.44;7407182;19;1589;-57
2022/08/11 00:03:06;;;;;;;;;;;;;;;24.36;47.87;101013.41;7407272;19;1749;-58
2022/08/11 00:05:35;;;;;;;;;;;;;;;24.29;48.17;101006.13;7406923;19;1853;-58
2022/08/11 00:08:04;;;;;;;;;;;;;;;24.31;48.05;101009.50;7407329;19;1573;-58
2022/08/11 00:10:35;;;;;;;;;;;;;;;24.29;48.25;100995.31;7407462;19;1537;-58
2022/08/11 00:13:06;;;;;;;;;;;;;;;24.30;47.86;100992.47;7406778;19;1567;-58
2022/08/11 00:15:40;;;;;;;;;;;;;;;24.31;48.19;100998.69;7405670;19;1442;-57
2022/08/11 00:18:08;;;;;;;;;;;;;;;24.32;48.07;101001.25;7405854;19;1460;-58
2022/08/11 00:20:40;;;;;;;;;;;;;;;24.28;48.06;101002.59;7405703;19;1645;-59
2022/08/11 00:23:09;;;;;;;;;;;;;;;24.18;48.52;101002.72;7407688;19;1381;-58
2022/08/11 00:25:43;;;;;;;;;;;;;;;24.18;48.43;100994.63;7405313;19;1852;-59
2022/08/11 00:28:26;;;;;;;;;;;;;;;24.24;48.34;101003.09;7405918;19;1741;-57
2022/08/11 00:30:55;;;;;;;;;;;;;;;24.22;48.31;101004.09;7407368;19;1756;-57
2022/08/11 00:33:25;;;;;;;;;;;;;;;24.23;48.38;101013.03;7406647;19;1630;-57
2022/08/11 00:35:59;;;;;;;;;;;;;;;24.21;48.59;101005.13;7406829;19;1602;-58
2022/08/11 00:38:30;;;;;;;;;;;;;;;24.26;48.40;101014.59;7406107;19;1686;-57
2022/08/11 00:41:06;;;;;;;;;;;;;;;24.22;48.01;100998.69;7406126;19;1565;-58
2022/08/11 00:43:42;;;;;;;;;;;;;;;24.21;48.30;101004.25;7406099;19;1523;-57
2022/08/11 00:46:15;;;;;;;;;;;;;;;24.17;48.32;101003.75;7402013;19;1841;-58
2022/08/11 00:48:50;;;;;;;;;;;;;;;24.15;48.27;101005.78;7406047;19;1433;-57
2022/08/11 00:51:26;;;;;;;;;;;;;;;24.19;48.41;101009.84;7406633;19;1341;-58
2022/08/11 00:54:04;;;;;;;;;;;;;;;24.19;48.28;101023.34;7403721;19;1507;-57
2022/08/11 00:56:46;;;;;;;;;;;;;;;24.13;48.41;100996.97;7405719;19;1705;-57
2022/08/11 00:59:28;;;;;;;;;;;;;;;24.21;48.29;101006.94;7405102;19;1636;-57
2022/08/11 01:02:01;;;;;;;;;;;;;;;24.21;48.47;100994.31;7402653;19;1689;-58
2022/08/11 01:04:44;;;;;;;;;;;;;;;24.10;48.25;101002.69;7405239;19;1899;-57
2022/08/11 01:07:29;;;;;;;;;;;;;;;24.15;48.19;101005.78;7402213;19;1863;-58
2022/08/11 01:10:08;;;;;;;;;;;;;;;24.11;48.33;100998.97;7404754;19;1636;-57
2022/08/11 01:12:55;;;;;;;;;;;;;;;24.17;48.46;101003.75;7403763;19;1566;-57
2022/08/11 01:15:41;;;;;;;;;;;;;;;24.21;48.18;100986.19;7405362;19;1543;-58
2022/08/11 01:18:26;;;;;;;;;;;;;;;24.24;48.06;100984.19;7403251;19;2520;-58
2022/08/11 01:21:08;;;;;;;;;;;;;;;24.21;48.37;100988.91;7405224;19;1604;-58
2022/08/11 01:24:01;;;;;;;;;;;;;;;24.17;48.52;100989.38;7404700;19;1538;-57
2022/08/11 01:26:57;;;;;;;;;;;;;;;24.17;48.67;100970.47;7399466;19;1842;-57
2022/08/11 01:29:43;;;;;;;;;;;;;;;24.21;48.67;100988.03;7403534;19;1618;-57
2022/08/11 01:32:29;;;;;;;;;;;;;;;24.16;48.82;100974.19;7401553;19;1499;-58
2022/08/11 01:35:27;;;;;;;;;;;;;;;24.12;48.96;100979.06;7403375;19;1657;-58
2022/08/11 01:38:08;;;;;;;;;;;;;;;24.22;48.85;100995.97;7400070;19;1622;-57
2022/08/11 01:40:49;;;;;;;;;;;;;;;24.10;48.56;100962.19;7403154;19;1586;-58
2022/08/11 01:46:37;;;;;;;;;;;;;;;24.02;48.64;100971.09;7398841;19;1859;-58
2022/08/11 01:49:14;;;;;;;;;;;;;;;24.07;48.56;100962.50;7404070;19;1571;-58
2022/08/11 01:51:51;;;;;;;;;;;;;;;24.05;48.71;100952.88;7403886;19;1836;-58
2022/08/11 01:54:25;;;;;;;;;;;;;;;24.06;48.56;100957.28;7402868;19;1527;-58
2022/08/11 01:57:04;;;;;;;;;;;;;;;24.06;48.63;100952.72;7405263;19;1632;-57
2022/08/11 01:59:36;;;;;;;;;;;;;;;24.11;48.65;100946.81;7411409;19;1710;-58
2022/08/11 02:02:13;;;;;;;;;;;;;;;24.05;48.62;100951.00;7399075;19;1709;-57
2022/08/11 02:04:48;;;;;;;;;;;;;;;24.19;48.49;100941.41;7409528;19;1641;-57
2022/08/11 02:07:20;;;;;;;;;;;;;;;24.17;49.21;100946.13;7408284;19;1861;-57
2022/08/11 02:11:29;;;;;;;;;;;;;;;24.04;49.63;100967.41;7408572;19;1416;-57
2022/08/11 02:12:59;;;;;;;;;;;;;;;24.14;49.33;100957.28;7409765;19;1396;-58
2022/08/11 02:15:33;;;;;;;;;;;;;;;24.10;48.86;100943.25;7410705;19;1463;-58
2022/08/11 02:18:20;;;;;;;;;;;;;;;24.14;49.23;100955.44;7410566;19;1835;-57
2022/08/11 02:23:44;;;;;;;;;;;;;;;24.08;49.04;100948.00;7406861;19;1426;-57
2022/08/11 02:26:18;;;;;;;;;;;;;;;24.16;48.97;100968.78;7410230;19;1856;-58
2022/08/11 02:28:57;;;;;;;;;;;;;;;24.04;49.29;100965.53;7409159;19;1763;-57
2022/08/11 02:34:17;;;;;;;;;;;;;;;24.12;49.29;100957.44;7410322;19;1523;-58
2022/08/11 02:36:49;;;;;;;;;;;;;;;24.15;49.34;100973.34;7409404;19;1321;-57
2022/08/11 02:39:20;;;;;;;;;;;;;;;24.07;49.41;100959.78;7408921;19;1326;-58
2022/08/11 02:44:42;;;;;;;;;;;;;;;24.15;49.33;100961.66;7408332;19;1566;-57
2022/08/11 02:47:15;;;;;;;;;;;;;;;24.11;49.46;100965.72;7406957;19;1845;-57
2022/08/11 02:49:55;;;;;;;;;;;;;;;24.09;49.70;100957.75;7408372;19;1554;-57
2022/08/11 02:52:38;;;;;;;;;;;;;;;24.13;49.19;100963.69;7409579;19;1652;-58
2022/08/11 02:55:20;;;;;;;;;;;;;;;24.11;49.28;100963.84;7409189;19;1776;-58
2022/08/11 02:57:52;;;;;;;;;;;;;;;24.08;49.79;100964.19;7409182;19;1733;-57
2022/08/11 03:00:24;;;;;;;;;;;;;;;24.04;49.55;100960.13;7407222;19;1721;-58
2022/08/11 03:02:58;;;;;;;;;;;;;;;23.97;49.71;100964.50;7408951;19;1526;-62
2022/08/11 03:05:33;;;;;;;;;;;;;;;24.00;49.84;100951.50;7408065;19;1373;-57
2022/08/11 03:08:17;;;;;;;;;;;;;;;23.96;50.07;100965.50;7401264;19;1844;-58
2022/08/11 03:16:43;;;;;;;;;;;;;;;23.95;49.96;100958.41;7405189;19;1646;-58
2022/08/11 03:16:48;;;;;;;;;;;;;;;24.06;49.68;100968.91;7406396;19;1628;-58
2022/08/11 03:19:21;;;;;;;;;;;;;;;23.89;50.24;100969.88;7405297;19;1420;-58
2022/08/11 03:21:55;;;;;;;;;;;;;;;23.87;50.40;100963.78;7407293;19;1750;-58
2022/08/11 03:24:27;;;;;;;;;;;;;;;23.97;50.26;100968.06;7406162;19;1613;-58
2022/08/11 03:27:04;;;;;;;;;;;;;;;23.92;50.39;100970.38;7406649;19;1878;-57
2022/08/11 03:29:35;;;;;;;;;;;;;;;24.04;50.23;100973.63;7407787;19;1473;-57
2022/08/11 03:32:09;;;;;;;;;;;;;;;24.07;49.93;100965.19;7407322;19;1657;-58
2022/08/11 03:34:38;;;;;;;;;;;;;;;24.13;50.14;100975.38;7406992;19;1742;-58
2022/08/11 03:41:41;;;;;;;;;;;;;;;23.97;50.32;100999.59;7404908;19;1749;-58
2022/08/11 03:43:15;;;;;;;;;;;;;;;24.05;49.94;100978.03;7406925;19;1752;-58
2022/08/11 03:45:56;;;;;;;;;;;;;;;24.06;49.88;100979.72;7407939;19;1677;-57
2022/08/11 03:48:31;;;;;;;;;;;;;;;24.08;50.13;100993.06;7407641;19;1593;-57
2022/08/11 03:51:11;;;;;;;;;;;;;;;24.09;50.45;100990.19;7407129;19;1500;-58
2022/08/11 03:54:07;;;;;;;;;;;;;;;23.85;50.61;100979.31;7408099;19;1642;-57
2022/08/11 03:56:50;;;;;;;;;;;;;;;23.81;50.75;100978.78;7404141;19;1799;-58
2022/08/11 03:59:34;;;;;;;;;;;;;;;23.66;51.11;101004.69;7407698;19;1622;-58
2022/08/11 04:02:31;;;;;;;;;;;;;;;23.38;51.65;100981.41;7405419;19;1735;-57
2022/08/11 04:05:20;;;;;;;;;;;;;;;23.55;51.41;100973.38;7406620;19;1634;-58
2022/08/11 04:08:07;;;;;;;;;;;;;;;23.66;51.32;100988.47;7403796;19;2602;-58
2022/08/11 04:10:54;;;;;;;;;;;;;;;23.63;51.16;100982.41;7407340;19;1542;-58
2022/08/11 04:13:40;;;;;;;;;;;;;;;23.82;50.51;100972.38;7403722;19;1560;-57
2022/08/11 04:16:14;;;;;;;;;;;;;;;23.96;50.37;100984.41;7404040;19;1551;-58
2022/08/11 04:18:52;;;;;;;;;;;;;;;24.01;49.99;100982.06;7404240;19;1634;-58
2022/08/11 04:21:38;;;;;;;;;;;;;;;24.07;50.24;100977.84;7405699;19;1573;-60
2022/08/11 04:24:21;;;;;;;;;;;;;;;23.96;50.20;100989.81;7406206;19;1575;-60
2022/08/11 04:27:12;;;;;;;;;;;;;;;23.95;50.41;100988.94;7407262;19;1845;-60
2022/08/11 04:29:48;;;;;;;;;;;;;;;24.06;50.10;100993.22;7406558;19;1532;-60
2022/08/11 04:32:40;;;;;;;;;;;;;;;24.16;49.90;100999.34;7405818;19;1777;-60
2022/08/11 04:35:15;;;;;;;;;;;;;;;24.20;49.58;100998.00;7406466;19;1434;-60
2022/08/11 04:37:52;;;;;;;;;;;;;;;24.20;49.60;100992.59;7402727;19;1483;-64
2022/08/11 04:40:38;;;;;;;;;;;;;;;24.28;49.67;100993.63;7404548;19;1623;-62
2022/08/11 04:43:28;;;;;;;;;;;;;;;24.30;49.17;101005.13;7404120;19;1615;-59
2022/08/11 04:46:11;;;;;;;;;;;;;;;24.31;49.10;101004.09;7404323;19;1460;-65
2022/08/11 05:03:16;;;;;;;;;;;;;;;23.94;48.78;100999.94;7406864;19;1528;-63
2022/08/11 05:05:57;;;;;;;;;;;;;;;24.06;48.84;100990.53;7404592;19;1547;-61
2022/08/11 05:08:43;;;;;;;;;;;;;;;24.32;48.30;100995.84;7403037;19;1861;-60
2022/08/11 05:11:38;;;;;;;;;;;;;;;24.30;47.97;100997.03;7406100;19;1360;-62
2022/08/11 05:36:33;;;;;;;;;;;;;;;25.18;47.50;101023.50;7405427;19;1554;-59
2022/08/11 05:57:58;;;;;;;;;;;;;;;25.46;48.38;100998.78;7402939;19;1336;-62
2022/08/11 06:00:27;;;;;;;;;;;;;;;25.45;48.25;101011.50;7402544;19;1409;-61
2022/08/11 06:02:56;;;;;;;;;;;;;;;25.47;47.89;100998.63;7401443;19;1352;-61
2022/08/11 06:05:25;;;;;;;;;;;;;;;25.51;48.18;101001.84;7403775;19;1651;-60
2022/08/11 06:07:56;;;;;;;;;;;;;;;25.43;48.33;101015.38;7403362;19;1862;-62
2022/08/11 06:10:29;;;;;;;;;;;;;;;25.42;48.61;101002.84;7402324;19;1369;-60
2022/08/11 06:12:59;;;;;;;;;;;;;;;25.45;48.79;101002.53;7402165;19;1452;-60
2022/08/11 06:15:28;;;;;;;;;;;;;;;25.71;48.18;100995.00;7401687;19;1536;-54
2022/08/11 06:17:57;;;;;;;;;;;;;;;25.62;48.69;100996.03;7401762;19;1523;-54
2022/08/11 06:20:31;;;;;;;;;;;;;;;25.47;48.73;100984.25;7402311;19;1776;-54
2022/08/11 06:23:05;;;;;;;;;;;;;;;25.47;48.57;100990.50;7404289;19;1477;-59
2022/08/11 06:25:34;;;;;;;;;;;;;;;25.47;48.41;100987.78;7400431;19;1685;-59
2022/08/11 06:28:04;;;;;;;;;;;;;;;25.36;48.65;100988.97;7402277;19;1852;-59
2022/08/11 06:30:39;;;;;;;;;;;;;;;25.43;48.55;100978.31;7401275;19;1571;-54
2022/08/11 06:33:09;;;;;;;;;;;;;;;25.59;48.14;100993.69;7402772;19;1653;-55
2022/08/11 06:35:40;;;;;;;;;;;;;;;25.72;48.33;100972.28;7402444;19;1428;-55
2022/08/11 06:38:14;;;;;;;;;;;;;;;25.65;48.97;100976.72;7397311;19;1778;-55
2022/08/11 06:41:29;;;;;;;;;;;;;;;25.68;48.98;100968.25;7395201;19;1555;-57
2022/08/11 06:43:46;;;;;;;;;;;;;;;25.78;49.29;100979.75;7398442;19;1963;-57
2022/08/11 06:46:17;;;;;;;;;;;;;;;25.78;49.01;100970.75;7408432;19;1554;-73
2022/08/11 06:48:46;;;;;;;;;;;;;;;25.71;49.50;100976.03;7404414;19;1842;-66
2022/08/11 06:51:12;;;;;;;;;;;;;;;25.68;49.74;100973.66;7408323;19;1571;-69
2022/08/11 06:53:45;;;;;;;;;;;;;;;25.69;49.89;100978.06;7407317;19;1432;-60
2022/08/11 07:01:46;;;;;;;;;;;;;;;25.71;51.00;100980.63;7405368;19;1523;-60
2022/08/11 07:04:16;;;;;;;;;;;;;;;25.71;51.11;100981.44;7405421;19;1577;-57
2022/08/11 07:29:03;;;;;;;;;;;;;;;26.00;51.03;100974.56;7404185;19;1849;-55
2022/08/11 07:31:35;;;;;;;;;;;;;;;25.97;50.84;100970.38;7407576;19;1332;-56
2022/08/11 07:34:13;;;;;;;;;;;;;;;25.97;51.36;100989.34;7407606;19;1294;-55
2022/08/11 07:36:44;;;;;;;;;;;;;;;25.98;51.14;100979.31;7408056;19;1351;-58
2022/08/11 07:39:17;;;;;;;;;;;;;;;25.92;51.40;100982.75;7408295;19;1408;-58
2022/08/11 07:41:48;;;;;;;;;;;;;;;25.95;50.80;100987.81;7407200;19;1270;-57
2022/08/11 07:44:17;;;;;;;;;;;;;;;25.93;51.22;100960.06;7404865;19;1358;-57
2022/08/11 07:54:50;;;;;;;;;;;;;;;25.92;51.34;100977.31;7406164;19;1397;-67
2022/08/11 08:18:53;;;;;;;;;;;;;;;25.91;51.08;100959.41;7407454;19;1368;-68
2022/08/11 08:21:22;;;;;;;;;;;;;;;25.89;50.98;100948.69;7405473;19;1326;-63
2022/08/11 08:23:50;;;;;;;;;;;;;;;25.93;51.15;100947.34;7403835;19;1426;-66
2022/08/11 08:31:44;;;;;;;;;;;;;;;25.95;51.24;100939.06;7404811;19;1552;-64
2022/08/11 08:34:14;;;;;;;;;;;;;;;25.99;51.22;100946.63;7404848;19;1265;-64
2022/08/11 08:36:44;;;;;;;;;;;;;;;25.98;51.45;100944.97;7406771;19;1617;-66
2022/08/11 08:39:15;;;;;;;;;;;;;;;26.01;51.31;100954.59;7406077;19;1328;-63
2022/08/11 08:41:45;;;;;;;;;;;;;;;25.98;51.04;100946.81;7404280;19;1291;-68
2022/08/11 08:44:16;;;;;;;;;;;;;;;25.98;51.25;100939.56;7402934;19;1316;-67
2022/08/11 08:46:46;;;;;;;;;;;;;;;25.96;50.81;100929.88;7406123;19;1531;-65
2022/08/11 08:49:17;;;;;;;;;;;;;;;25.97;51.06;100932.44;7402470;19;1881;-58
2022/08/11 08:51:46;;;;;;;;;;;;;;;25.96;51.51;100940.72;7405666;19;1350;-59
2022/08/11 08:54:18;;;;;;;;;;;;;;;25.91;51.14;100938.56;7404930;19;1187;-65
2022/08/11 08:56:47;;;;;;;;;;;;;;;25.96;50.90;100921.75;7405180;19;1730;-59
2022/08/11 08:59:18;;;;;;;;;;;;;;;25.95;51.25;100925.50;7402527;19;1498;-59
2022/08/11 09:01:49;;;;;;;;;;;;;;;26.01;51.23;100927.50;7401996;19;1543;-64
2022/08/11 09:04:19;;;;;;;;;;;;;;;25.96;50.96;100933.47;7404779;19;1317;-64
2022/08/11 09:06:49;;;;;;;;;;;;;;;25.95;51.01;100933.63;7401485;19;1320;-71
2022/08/11 09:09:18;;;;;;;;;;;;;;;25.99;51.36;100929.53;7398852;19;1838;-59
2022/08/11 09:11:52;;;;;;;;;;;;;;;26.04;51.34;100923.59;7404563;19;1278;-59
2022/08/11 09:14:59;;;;;;;;;;;;;;;26.02;51.28;100918.34;7401571;19;1171;-58
2022/08/11 09:17:13;;;;;;;;;;;;;;;26.01;51.31;100937.50;7404706;19;2047;-58
2022/08/11 09:19:42;;;;;;;;;;;;;;;25.93;51.64;100905.88;7404179;19;1549;-58
2022/08/11 09:27:33;;;;;;;;;;;;;;;25.91;51.38;100908.75;7405686;19;1849;-59
2022/08/11 09:30:05;;;;;;;;;;;;;;;25.91;51.48;100910.63;7404948;19;1554;-59
2022/08/11 09:32:34;;;;;;;;;;;;;;;25.93;51.30;100911.28;7404220;19;1627;-58
2022/08/11 09:35:04;;;;;;;;;;;;;;;25.90;51.62;100908.91;7403196;19;1601;-58
2022/08/11 09:40:32;;;;;;;;;;;;;;;25.90;51.66;100898.91;7404996;19;1545;-58
2022/08/11 09:45:49;;;;;;;;;;;;;;;25.95;51.26;100912.78;7403641;19;1523;-58
2022/08/11 09:48:18;;;;;;;;;;;;;;;25.94;51.41;100896.72;7402710;19;1842;-59
2022/08/11 09:50:47;;;;;;;;;;;;;;;25.93;51.43;100886.91;7402852;19;1755;-58
2022/08/11 09:53:17;;;;;;;;;;;;;;;25.90;51.42;100888.09;7403226;19;1305;-58
2022/08/11 09:55:45;;;;;;;;;;;;;;;25.91;51.31;100900.63;7401568;19;1293;-58
2022/08/11 09:58:12;;;;;;;;;;;;;;;25.89;51.19;100880.97;7402939;19;1471;-58
2022/08/11 10:00:41;;;;;;;;;;;;;;;25.93;51.17;100903.16;7403008;19;1214;-59
2022/08/11 10:03:14;;;;;;;;;;;;;;;25.91;51.38;100883.53;7402737;19;1677;-59
2022/08/11 10:08:29;;;;;;;;;;;;;;;25.92;51.36;100891.47;7402420;19;1861;-58
2022/08/11 10:10:58;;;;;;;;;;;;;;;25.94;51.38;100892.16;7402835;19;1304;-58
2022/08/11 10:13:32;;;;;;;;;;;;;;;25.91;51.24;100891.66;7401897;19;1307;-58
2022/08/11 10:16:00;;;;;;;;;;;;;;;25.95;51.52;100890.28;7402509;19;1629;-58
2022/08/11 10:18:48;;;;;;;;;;;;;;;25.91;51.18;100886.25;7406579;19;1599;-58
2022/08/11 10:21:27;;;;;;;;;;;;;;;25.90;51.51;100877.25;7408557;19;1404;-58
2022/08/11 10:34:43;;;;;;;;;;;;;;;25.86;51.72;100869.63;7409374;19;1550;-58
2022/08/11 10:37:12;;;;;;;;;;;;;;;25.88;51.84;100867.59;7408683;19;1538;-59
2022/08/11 10:39:42;;;;;;;;;;;;;;;25.90;51.62;100870.97;7409353;19;1403;-58
2022/08/11 10:44:53;;;;;;;;;;;;;;;25.93;51.27;100870.66;7410261;19;1278;-58
2022/08/11 10:47:35;;;;;;;;;;;;;;;25.93;51.26;100870.66;7409660;19;1475;-59
2022/08/11 11:00:55;;;;;;;;;;;;;;;25.95;51.44;100874.03;7408616;19;1590;-59
2022/08/11 11:03:24;;;;;;;;;;;;;;;25.94;51.45;100873.19;7407925;19;1359;-58
2022/08/11 11:05:57;;;;;;;;;;;;;;;25.91;51.31;100856.44;7409483;19;1342;-59
2022/08/11 11:11:10;;;;;;;;;;;;;;;25.95;51.45;100865.91;7411261;19;1618;-58
2022/08/11 11:19:08;;;;;;;;;;;;;;;25.92;51.53;100841.84;7405028;19;1372;-59
2022/08/11 11:21:40;;;;;;;;;;;;;;;25.95;51.44;100841.50;7408798;19;1439;-58
2022/08/11 11:24:12;;;;;;;;;;;;;;;25.92;51.39;100847.28;7407630;19;1529;-58
2022/08/11 11:26:45;;;;;;;;;;;;;;;25.91;51.33;100845.59;7407782;19;1768;-59
2022/08/11 11:29:27;;;;;;;;;;;;;;;25.90;51.44;100842.03;7404920;19;1873;-58
2022/08/11 11:32:13;;;;;;;;;;;;;;;25.91;51.37;100859.16;7407438;19;1213;-58
2022/08/11 11:34:52;;;;;;;;;;;;;;;25.90;51.60;100833.03;7408961;19;1400;-59
2022/08/11 11:37:24;;;;;;;;;;;;;;;25.91;51.51;100849.16;7407995;19;1511;-59
2022/08/11 11:39:53;;;;;;;;;;;;;;;25.93;51.42;100857.09;7407910;19;1565;-58
2022/08/11 11:42:22;;;;;;;;;;;;;;;25.91;51.35;100838.31;7406079;19;1489;-59
2022/08/11 11:44:51;;;;;;;;;;;;;;;25.91;51.61;100856.44;7407723;19;1244;-58
2022/08/11 11:47:21;;;;;;;;;;;;;;;25.87;51.71;100845.06;7407030;19;1392;-58
2022/08/11 11:49:50;;;;;;;;;;;;;;;25.91;51.40;100834.75;7405751;19;1849;-58
2022/08/11 11:52:20;;;;;;;;;;;;;;;25.88;51.75;100843.19;7407336;19;1176;-59
2022/08/11 11:54:53;;;;;;;;;;;;;;;25.88;51.57;100826.94;7406914;19;1529;-59
2022/08/11 12:02:46;;;;;;;;;;;;;;;25.86;51.63;100831.72;7407704;19;1527;-58
2022/08/11 12:05:14;;;;;;;;;;;;;;;25.88;51.70;100835.91;7408066;19;1359;-58
2022/08/11 12:10:27;;;;;;;;;;;;;;;25.86;51.46;100837.97;7405921;19;1624;-58
2022/08/11 12:15:37;;;;;;;;;;;;;;;25.86;51.67;100826.28;7407678;19;1621;-59
2022/08/11 12:18:05;;;;;;;;;;;;;;;25.83;51.54;100838.34;7406905;19;1301;-59
2022/08/11 12:20:34;;;;;;;;;;;;;;;25.84;51.45;100847.28;7407333;19;1438;-59
2022/08/11 12:28:27;;;;;;;;;;;;;;;25.86;51.72;100845.25;7406397;19;1848;-59
2022/08/11 12:30:56;;;;;;;;;;;;;;;25.84;51.54;100834.59;7406310;19;1565;-59
2022/08/11 12:33:25;;;;;;;;;;;;;;;25.82;51.82;100824.97;7406656;19;1532;-58
2022/08/11 12:35:59;;;;;;;;;;;;;;;25.82;51.48;100828.50;7405554;19;1766;-59
2022/08/11 12:38:28;;;;;;;;;;;;;;;25.82;51.48;100830.38;7405974;19;1392;-58
2022/08/11 12:46:33;;;;;;;;;;;;;;;25.82;51.59;100819.53;7401142;19;1308;-58
2022/08/11 12:51:58;;;;;;;;;;;;;;;25.84;51.47;100818.34;7406403;19;1277;-58
2022/08/11 12:54:29;;;;;;;;;;;;;;;25.85;51.58;100802.94;7402247;19;1407;-57
2022/08/11 13:05:07;;;;;;;;;;;;;;;25.85;51.65;100808.38;7404444;19;1432;-59
2022/08/11 13:07:36;;;;;;;;;;;;;;;25.84;51.92;100801.25;7405679;19;1784;-60
2022/08/11 13:10:09;;;;;;;;;;;;;;;25.89;51.77;100825.94;7401793;19;3009;-58
2022/08/11 13:12:47;;;;;;;;;;;;;;;25.87;52.20;100804.44;7403138;19;1527;-59
2022/08/11 13:15:16;;;;;;;;;;;;;;;25.87;52.14;100812.56;7405096;19;1328;-59
2022/08/11 13:17:47;;;;;;;;;;;;;;;25.87;52.10;100818.00;7403573;19;1353;-58
2022/08/11 13:20:18;;;;;;;;;;;;;;;25.91;52.50;100813.94;7403104;19;1300;-60
2022/08/11 13:22:49;;;;;;;;;;;;;;;25.92;52.04;100803.91;7404405;19;1492;-58
2022/08/11 13:25:18;;;;;;;;;;;;;;;25.96;52.02;100800.69;7403357;19;1479;-56
2022/08/11 13:27:51;;;;;;;;;;;;;;;26.01;51.89;100797.44;7401372;19;1284;-64
2022/08/11 13:33:01;;;;;;;;;;;;;;;25.99;51.96;100794.06;7402944;19;1391;-58
2022/08/11 13:35:30;;;;;;;;;;;;;;;26.02;51.82;100793.69;7405155;19;1294;-58
2022/08/11 13:37:59;;;;;;;;;;;;;;;26.04;51.84;100793.50;7403538;19;1364;-58
2022/08/11 13:40:27;;;;;;;;;;;;;;;26.03;51.72;100789.97;7403244;19;1430;-58
2022/08/11 13:42:59;;;;;;;;;;;;;;;26.05;51.58;100785.19;7401671;19;1365;-60
2022/08/11 13:45:28;;;;;;;;;;;;;;;26.08;51.58;100781.28;7400972;19;1423;-63
2022/08/11 13:47:57;;;;;;;;;;;;;;;26.09;51.77;100783.81;7401930;19;1202;-58
2022/08/11 13:51:29;;;;;;;;;;;;;;;26.10;51.97;100790.06;7398513;19;1849;-57
2022/08/11 13:53:17;;;;;;;;;;;;;;;26.13;51.85;100776.16;7406481;19;2034;-58
2022/08/11 13:55:45;;;;;;;;;;;;;;;26.11;52.26;100783.63;7411939;19;1613;-58
2022/08/11 13:58:17;;;;;;;;;;;;;;;26.10;52.39;100795.47;7408322;19;1412;-57
2022/08/11 14:00:47;;;;;;;;;;;;;;;26.12;51.93;100799.72;7409439;19;1637;-56
2022/08/11 14:03:16;;;;;;;;;;;;;;;26.15;52.23;100784.94;7407749;19;1592;-56
2022/08/11 14:05:50;;;;;;;;;;;;;;;26.15;52.64;100788.50;7410789;19;1344;-57
2022/08/11 14:08:21;;;;;;;;;;;;;;;26.18;52.30;100785.44;7411722;19;1162;-68
2022/08/11 14:13:36;;;;;;;;;;;;;;;26.29;49.85;100777.88;7410582;19;1709;-57
2022/08/11 14:13:40;;;;;;;;;;;;;;;26.47;48.67;100781.09;7411074;19;1634;-62
2022/08/11 14:16:13;;;;;;;;;;;;;;;26.41;48.72;100764.72;7410721;19;1383;-58
2022/08/11 14:18:44;;;;;;;;;;;;;;;26.31;50.35;100775.84;7412699;19;1297;-67
2022/08/11 14:23:58;;;;;;;;;;;;;;;26.28;49.92;100777.06;7411633;19;1460;-58
2022/08/11 14:26:30;;;;;;;;;;;;;;;26.29;49.56;100780.59;7411918;19;1482;-58
2022/08/11 14:29:02;;;;;;;;;;;;;;;26.21;49.75;100784.22;7411176;19;1852;-60
2022/08/11 14:31:32;;;;;;;;;;;;;;;26.23;48.22;100767.78;7409905;19;1340;-55
2022/08/11 14:34:03;;;;;;;;;;;;;;;26.29;48.30;100775.19;7411130;19;1582;-64
2022/08/11 14:36:32;;;;;;;;;;;;;;;26.29;45.36;100784.13;7410250;19;1383;-62
2022/08/11 14:39:02;;;;;;;;;;;;;;;26.28;46.95;100771.63;7408565;19;1250;-68
2022/08/11 14:47:13;;;;;;;;;;;;;;;26.13;46.98;100784.28;7407566;19;1352;-60
2022/08/11 14:49:42;;;;;;;;;;;;;;;26.24;45.42;100766.75;7406428;19;1862;-59
2022/08/11 14:52:12;;;;;;;;;;;;;;;26.08;47.26;100768.56;7406886;19;1162;-58
2022/08/11 14:57:27;;;;;;;;;;;;;;;25.96;52.00;100778.16;7408645;19;1232;-58
2022/08/11 14:59:59;;;;;;;;;;;;;;;26.06;50.37;100770.59;7409295;19;1279;-60
2022/08/11 15:05:09;;;;;;;;;;;;;;;26.08;52.46;100775.84;7406998;19;1417;-60
2022/08/11 15:07:39;;;;;;;;;;;;;;;26.05;49.64;100782.50;7409237;19;1748;-57
2022/08/11 15:10:09;;;;;;;;;;;;;;;26.01;50.14;100755.94;7406572;19;1853;-56
2022/08/11 15:12:38;;;;;;;;;;;;;;;25.96;51.70;100756.47;7407503;19;1408;-56
2022/08/11 15:17:53;;;;;;;;;;;;;;;25.92;51.91;100760.56;7409661;19;1527;-56
2022/08/11 15:25:45;;;;;;;;;;;;;;;26.01;50.72;100764.91;7407558;19;1447;-57
2022/08/11 15:39:21;;;;;;;;;;;;;;;25.82;50.64;100746.41;7406643;19;1518;-57
2022/08/11 15:47:27;;;;;;;;;;;;;;;25.81;50.63;100715.78;7402901;19;1409;-57
2022/08/11 15:49:57;;;;;;;;;;;;;;;25.78;50.79;100724.25;7406522;19;1861;-60
2022/08/11 15:52:29;;;;;;;;;;;;;;;25.80;50.98;100731.19;7407769;19;1618;-60
2022/08/11 15:55:01;;;;;;;;;;;;;;;25.75;50.91;100733.59;7407494;19;1684;-56
2022/08/11 16:05:38;;;;;;;;;;;;;;;25.74;51.05;100722.94;7408081;19;1554;-57
2022/08/11 16:08:06;;;;;;;;;;;;;;;25.73;50.87;100722.09;7407990;19;1420;-61
2022/08/11 16:10:36;;;;;;;;;;;;;;;25.74;50.69;100731.88;7406119;19;1867;-60
2022/08/11 16:18:42;;;;;;;;;;;;;;;25.73;50.83;100740.22;7407336;19;1614;-57
2022/08/11 16:21:13;;;;;;;;;;;;;;;25.73;50.77;100729.38;7407167;19;1589;-57
2022/08/11 16:23:42;;;;;;;;;;;;;;;25.73;50.82;100735.63;7406833;19;1665;-60
2022/08/11 16:26:11;;;;;;;;;;;;;;;25.75;50.78;100717.34;7408089;19;1313;-60
2022/08/11 16:28:40;;;;;;;;;;;;;;;25.76;50.71;100737.13;7406776;19;1678;-56
2022/08/11 16:31:10;;;;;;;;;;;;;;;25.72;50.62;100717.69;7404144;19;1894;-60
2022/08/11 16:33:42;;;;;;;;;;;;;;;25.75;50.83;100725.47;7406413;19;1503;-60
2022/08/11 16:38:53;;;;;;;;;;;;;;;25.74;50.56;100740.00;7406777;19;1767;-57
2022/08/11 16:46:58;;;;;;;;;;;;;;;25.69;50.21;100737.03;7405940;19;1360;-56
2022/08/11 16:47:03;;;;;;;;;;;;;;;25.68;50.28;100726.38;7406424;19;1373;-60
2022/08/11 16:49:36;;;;;;;;;;;;;;;25.69;50.70;100745.16;7405257;19;1833;-57
2022/08/11 16:52:09;;;;;;;;;;;;;;;25.66;50.55;100729.25;7406501;19;1337;-59
2022/08/11 16:54:38;;;;;;;;;;;;;;;25.69;50.32;100737.03;7405189;19;1519;-61
2022/08/11 16:59:48;;;;;;;;;;;;;;;25.72;50.75;100754.78;7403669;19;1459;-61
2022/08/11 17:13:07;;;;;;;;;;;;;;;25.62;50.57;100736.03;7403831;19;1869;-61
2022/08/11 17:13:20;;;;;;;;;;;;;;;25.67;50.36;100757.19;7406796;19;1606;-60
2022/08/11 17:18:47;;;;;;;;;;;;;;;25.64;50.57;100736.72;7405451;19;1537;-60
2022/08/11 17:21:26;;;;;;;;;;;;;;;25.60;50.54;100732.69;7404284;19;1693;-61
2022/08/11 17:23:53;;;;;;;;;;;;;;;25.64;50.70;100752.13;7403464;19;1601;-60
2022/08/11 17:26:52;;;;;;;;;;;;;;;25.63;50.25;100759.41;7405070;19;1607;-60
2022/08/11 17:29:18;;;;;;;;;;;;;;;25.61;50.65;100750.63;7401926;19;2020;-56
2022/08/11 17:37:13;;;;;;;;;;;;;;;25.62;50.61;100765.84;7405654;19;1555;-60
2022/08/11 17:39:42;;;;;;;;;;;;;;;25.60;50.36;100762.47;7404251;19;1522;-57
2022/08/11 17:50:15;;;;;;;;;;;;;;;25.60;50.84;100776.00;7405401;19;1850;-59
2022/08/11 18:00:51;;;;;;;;;;;;;;;25.52;50.48;100776.06;7403577;19;1653;-60
2022/08/11 18:03:38;;;;;;;;;;;;;;;25.53;50.58;100788.59;7403932;19;1642;-60
2022/08/11 18:06:07;;;;;;;;;;;;;;;25.52;50.37;100795.84;7403837;19;1606;-60
